createdAt,value
2022-12-19T00:01:17.281Z,21.50
2022-12-19T00:03:44.948Z,19.53
2022-12-19T00:06:11.408Z,19.87
2022-12-19T00:08:38.666Z,24.47
2022-12-19T00:11:05.030Z,19.03
2022-12-19T00:13:34.750Z,14.40
2022-12-19T00:16:11.269Z,17.23
2022-12-19T00:18:39.132Z,21.30
2022-12-19T00:21:06.183Z,16.47
2022-12-19T00:23:33.356Z,19.50
2022-12-19T00:26:09.008Z,17.00
2022-12-19T00:28:35.558Z,16.23
2022-12-19T00:31:02.678Z,23.50
2022-12-19T00:33:29.080Z,24.03
2022-12-19T00:36:00.471Z,19.37
2022-12-19T00:38:27.447Z,16.60
2022-12-19T00:40:54.007Z,16.97
2022-12-19T00:43:20.546Z,18.90
2022-12-19T00:45:46.993Z,16.80
2022-12-19T00:48:16.545Z,18.70
2022-12-19T00:50:45.026Z,15.32
2022-12-19T00:53:11.447Z,16.30
2022-12-19T00:55:38.283Z,20.03
2022-12-19T00:58:04.676Z,18.87
2022-12-19T01:00:31.157Z,28.13
2022-12-19T01:02:58.821Z,21.83
2022-12-19T01:05:25.331Z,20.00
2022-12-19T01:07:51.859Z,18.93
2022-12-19T01:10:18.263Z,19.43
2022-12-19T01:12:47.744Z,18.10
2022-12-19T01:15:15.675Z,17.23
2022-12-19T01:17:44.081Z,20.80
2022-12-19T01:20:11.301Z,18.03
2022-12-19T01:22:37.651Z,16.57
2022-12-19T01:25:05.425Z,21.07
2022-12-19T01:27:33.104Z,17.13
2022-12-19T01:29:59.497Z,22.90
2022-12-19T01:32:25.907Z,19.20
2022-12-19T01:34:52.323Z,20.53
2022-12-19T01:37:20.319Z,20.77
2022-12-19T01:39:46.800Z,18.17
2022-12-19T01:42:19.573Z,18.73
2022-12-19T01:45:19.125Z,22.03
2022-12-19T01:47:53.845Z,17.27
2022-12-19T01:50:25.316Z,15.07
2022-12-19T01:52:52.211Z,16.63
2022-12-19T01:55:19.305Z,15.73
2022-12-19T01:57:46.132Z,15.23
2022-12-19T02:00:12.861Z,15.60
2022-12-19T02:02:45.172Z,16.33
2022-12-19T02:05:11.763Z,17.53
2022-12-19T02:07:38.728Z,16.63
2022-12-19T02:10:05.546Z,14.73
2022-12-19T02:12:34.311Z,16.03
2022-12-19T02:15:03.248Z,15.90
2022-12-19T02:17:56.557Z,15.80
2022-12-19T02:20:26.032Z,16.00
2022-12-19T02:23:15.215Z,14.50
2022-12-19T02:26:00.537Z,16.50
2022-12-19T02:28:39.171Z,16.97
2022-12-19T02:31:16.833Z,16.47
2022-12-19T02:33:50.034Z,14.73
2022-12-19T02:36:25.222Z,15.40
2022-12-19T02:38:58.725Z,15.17
2022-12-19T02:41:43.384Z,17.10
2022-12-19T02:44:15.783Z,17.63
2022-12-19T02:46:43.403Z,16.83
2022-12-19T02:49:12.097Z,14.47
2022-12-19T02:51:43.023Z,17.30
2022-12-19T02:54:09.737Z,15.83
2022-12-19T02:56:38.875Z,14.93
2022-12-19T02:59:11.254Z,18.23
2022-12-19T03:01:43.842Z,17.37
2022-12-19T03:04:19.574Z,14.83
2022-12-19T03:07:01.732Z,17.97
2022-12-19T03:09:34.205Z,18.37
2022-12-19T03:12:04.178Z,16.23
2022-12-19T03:14:31.569Z,19.93
2022-12-19T03:17:02.364Z,15.87
2022-12-19T03:19:28.906Z,17.63
2022-12-19T03:21:55.330Z,19.50
2022-12-19T03:24:21.830Z,17.37
2022-12-19T03:26:52.154Z,18.07
2022-12-19T03:29:26.462Z,18.93
2022-12-19T03:31:53.822Z,17.57
2022-12-19T03:34:22.479Z,19.20
2022-12-19T03:36:52.421Z,20.20
2022-12-19T03:39:19.878Z,19.60
2022-12-19T03:42:04.999Z,19.53
2022-12-19T03:44:35.447Z,17.63
2022-12-19T03:47:08.570Z,19.90
2022-12-19T03:49:35.107Z,22.03
2022-12-19T03:52:17.272Z,16.50
2022-12-19T03:54:48.874Z,19.53
2022-12-19T03:57:18.327Z,21.10
2022-12-19T03:59:45.972Z,17.70
2022-12-19T04:02:14.036Z,19.33
2022-12-19T04:04:43.849Z,21.37
2022-12-19T04:07:11.195Z,18.47
2022-12-19T04:09:41.459Z,19.87
2022-12-19T04:12:15.790Z,18.33
2022-12-19T04:14:42.409Z,18.50
2022-12-19T04:17:27.313Z,18.43
2022-12-19T04:20:08.282Z,18.13
2022-12-19T04:22:43.802Z,17.63
2022-12-19T04:25:12.372Z,18.13
2022-12-19T04:27:41.164Z,17.10
2022-12-19T04:30:07.920Z,18.33
2022-12-19T04:32:35.573Z,17.67
2022-12-19T04:35:02.606Z,17.00
2022-12-19T04:37:29.439Z,22.30
2022-12-19T04:39:55.850Z,16.90
2022-12-19T04:42:23.953Z,19.70
2022-12-19T04:44:50.401Z,17.80
2022-12-19T04:47:16.958Z,20.13
2022-12-19T04:49:43.636Z,16.47
2022-12-19T04:52:10.070Z,19.90
2022-12-19T04:54:37.880Z,17.83
2022-12-19T04:57:04.330Z,20.00
2022-12-19T04:59:31.545Z,18.83
2022-12-19T05:01:58.197Z,16.87
2022-12-19T05:04:25.946Z,17.53
2022-12-19T05:06:52.428Z,15.20
2022-12-19T05:09:18.812Z,18.63
2022-12-19T05:11:45.219Z,17.83
2022-12-19T05:14:11.665Z,17.13
2022-12-19T05:16:38.059Z,17.87
2022-12-19T05:19:04.552Z,16.80
2022-12-19T05:21:30.914Z,14.57
2022-12-19T05:23:57.307Z,19.73
2022-12-19T05:26:23.799Z,16.03
2022-12-19T05:28:50.220Z,17.37
2022-12-19T05:31:18.268Z,94.67
2022-12-19T05:33:44.792Z,150.40
2022-12-19T05:36:11.547Z,62.83
2022-12-19T05:38:37.992Z,66.17
2022-12-19T05:41:09.558Z,25.07
2022-12-19T05:43:36.312Z,20.05
2022-12-19T05:46:04.432Z,18.10
2022-12-19T05:48:30.918Z,12.80
2022-12-19T05:50:57.613Z,12.63
2022-12-19T05:53:26.106Z,15.50
2022-12-19T05:55:52.702Z,14.60
2022-12-19T05:58:22.341Z,17.10
2022-12-19T06:00:48.748Z,13.83
2022-12-19T06:03:15.254Z,19.50
2022-12-19T06:05:41.770Z,17.87
2022-12-19T06:08:08.867Z,15.53
2022-12-19T06:10:35.354Z,15.67
2022-12-19T06:13:01.887Z,14.93
2022-12-19T06:15:28.315Z,13.87
2022-12-19T06:17:54.898Z,16.23
2022-12-19T06:20:21.296Z,13.97
2022-12-19T06:22:47.685Z,12.83
2022-12-19T06:25:14.114Z,14.20
2022-12-19T06:27:40.521Z,12.50
2022-12-19T06:30:07.164Z,13.50
2022-12-19T06:32:38.062Z,13.17
2022-12-19T06:35:05.214Z,15.37
2022-12-19T06:37:31.698Z,14.87
2022-12-19T06:39:59.325Z,17.50
2022-12-19T06:42:25.813Z,15.20
2022-12-19T06:44:53.666Z,15.07
2022-12-19T06:47:21.164Z,17.33
2022-12-19T06:49:48.599Z,13.27
2022-12-19T06:52:15.425Z,14.87
2022-12-19T06:54:42.590Z,14.83
2022-12-19T06:57:09.087Z,14.53
2022-12-19T06:59:35.557Z,14.27
2022-12-19T07:02:21.723Z,14.53
2022-12-19T07:04:51.085Z,13.60
2022-12-19T07:07:17.526Z,12.87
2022-12-19T07:09:43.961Z,14.27
2022-12-19T07:12:10.402Z,15.83
2022-12-19T07:14:36.839Z,17.33
2022-12-19T07:17:04.138Z,14.23
2022-12-19T07:19:31.472Z,17.10
2022-12-19T07:21:58.776Z,15.97
2022-12-19T07:24:25.236Z,14.10
2022-12-19T07:26:51.633Z,14.63
2022-12-19T07:29:18.046Z,14.93
2022-12-19T07:31:44.537Z,15.00
2022-12-19T07:34:11.062Z,13.30
2022-12-19T07:36:37.499Z,16.73
2022-12-19T07:39:03.897Z,13.87
2022-12-19T07:41:30.316Z,13.23
2022-12-19T07:43:56.717Z,13.70
2022-12-19T07:46:23.386Z,16.63
2022-12-19T07:48:50.754Z,13.13
2022-12-19T07:51:17.179Z,17.40
2022-12-19T07:53:44.997Z,16.50
2022-12-19T07:56:11.621Z,20.57
2022-12-19T07:58:38.077Z,19.20
2022-12-19T08:01:06.588Z,16.33
2022-12-19T08:03:34.370Z,17.93
2022-12-19T08:06:01.655Z,21.83
2022-12-19T08:08:28.504Z,19.97
2022-12-19T08:10:55.052Z,16.67
2022-12-19T08:13:21.477Z,14.83
2022-12-19T08:15:47.914Z,15.83
2022-12-19T08:18:14.368Z,16.40
2022-12-19T08:20:43.818Z,18.03
2022-12-19T08:23:10.220Z,16.63
2022-12-19T08:25:39.327Z,18.63
2022-12-19T08:28:05.731Z,17.63
2022-12-19T08:30:32.318Z,15.53
2022-12-19T08:32:58.797Z,16.13
2022-12-19T08:35:25.307Z,15.07
2022-12-19T08:37:51.712Z,16.17
2022-12-19T08:40:18.161Z,14.37
2022-12-19T08:42:44.598Z,16.77
2022-12-19T08:45:11.613Z,16.80
2022-12-19T08:47:38.050Z,15.17
2022-12-19T08:50:04.685Z,16.03
2022-12-19T08:52:31.136Z,16.00
2022-12-19T08:54:58.075Z,16.93
2022-12-19T08:57:24.431Z,21.67
2022-12-19T08:59:51.039Z,15.80
2022-12-19T09:02:18.668Z,16.50
2022-12-19T09:05:59.654Z,18.57
2022-12-19T09:07:31.686Z,15.50
2022-12-19T09:10:00.823Z,17.40
2022-12-19T09:12:27.315Z,17.37
2022-12-19T09:14:53.756Z,16.33
2022-12-19T09:17:20.935Z,16.83
2022-12-19T09:19:48.153Z,18.57
2022-12-19T09:22:14.935Z,19.93
2022-12-19T09:24:41.403Z,20.23
2022-12-19T09:27:07.843Z,19.43
2022-12-19T09:29:35.756Z,20.13
2022-12-19T09:32:02.739Z,20.53
2022-12-19T09:34:31.888Z,20.20
2022-12-19T09:37:05.038Z,22.03
2022-12-19T09:39:31.498Z,23.90
2022-12-19T09:42:13.544Z,16.03
2022-12-19T09:47:25.072Z,14.93
2022-12-19T09:49:52.093Z,13.80
2022-12-19T09:52:37.306Z,13.70
2022-12-19T09:55:22.704Z,14.73
2022-12-19T09:57:58.230Z,20.33
2022-12-19T10:00:28.773Z,16.73
2022-12-19T10:03:01.576Z,16.10
2022-12-19T10:07:00.898Z,15.73
2022-12-19T10:08:19.943Z,19.73
2022-12-19T10:12:39.648Z,15.00
2022-12-19T10:13:51.206Z,15.90
2022-12-19T10:16:27.217Z,15.05
2022-12-19T10:18:56.966Z,18.83
2022-12-19T10:22:16.145Z,16.63
2022-12-19T10:24:35.157Z,16.60
2022-12-19T10:27:06.464Z,17.97
2022-12-19T10:29:44.735Z,18.45
2022-12-19T10:32:11.551Z,17.93
2022-12-19T10:34:41.655Z,13.50
2022-12-19T10:37:26.569Z,18.47
2022-12-19T10:40:21.735Z,16.40
2022-12-19T10:42:55.173Z,19.63
2022-12-19T10:45:22.594Z,16.77
2022-12-19T10:47:55.732Z,17.90
2022-12-19T10:50:23.790Z,16.17
2022-12-19T10:52:52.420Z,17.07
2022-12-19T10:55:26.594Z,18.33
2022-12-19T10:57:53.275Z,16.57
2022-12-19T11:00:20.204Z,16.47
2022-12-19T11:02:48.360Z,17.93
2022-12-19T11:05:39.298Z,16.43
2022-12-19T11:08:08.794Z,16.40
2022-12-19T11:12:27.957Z,18.60
2022-12-19T11:18:38.873Z,17.47
2022-12-19T11:21:19.265Z,19.13
2022-12-19T11:24:55.028Z,16.40
2022-12-19T11:29:18.922Z,19.83
2022-12-19T11:29:30.743Z,16.37
2022-12-19T11:30:36.057Z,16.23
2022-12-19T11:33:18.811Z,31.23
2022-12-19T11:35:51.047Z,18.97
2022-12-19T11:38:21.278Z,19.90
2022-12-19T11:40:56.406Z,21.20
2022-12-19T11:43:46.679Z,15.13
2022-12-19T11:46:32.486Z,15.20
2022-12-19T11:49:02.476Z,15.53
2022-12-19T11:51:40.313Z,24.90
2022-12-19T11:54:12.201Z,22.83
2022-12-19T11:59:28.759Z,17.73
2022-12-19T12:02:02.631Z,21.33
2022-12-19T12:04:32.291Z,19.47
2022-12-19T12:07:00.068Z,19.93
2022-12-19T12:12:44.230Z,23.90
2022-12-19T12:17:45.321Z,18.80
2022-12-19T12:27:29.995Z,20.77
2022-12-19T12:31:06.986Z,21.60
2022-12-19T12:31:31.738Z,20.70
2022-12-19T12:31:38.742Z,21.90
2022-12-19T12:31:39.615Z,20.83
2022-12-19T12:31:48.337Z,17.87
2022-12-19T12:35:19.236Z,39.33
2022-12-19T12:38:22.915Z,21.77
2022-12-19T12:40:51.659Z,37.77
2022-12-19T12:43:24.749Z,22.27
2022-12-19T12:45:51.330Z,23.07
2022-12-19T12:48:21.431Z,22.70
2022-12-19T12:50:54.657Z,21.17
2022-12-19T12:53:24.303Z,55.00
2022-12-19T12:55:52.081Z,22.73
2022-12-19T12:58:37.457Z,20.33
2022-12-19T13:01:17.541Z,21.90
2022-12-19T13:03:53.124Z,27.07
2022-12-19T13:06:27.881Z,20.50
2022-12-19T13:09:02.556Z,20.97
2022-12-19T13:11:47.754Z,22.57
2022-12-19T13:14:32.935Z,22.10
2022-12-19T13:16:59.706Z,22.63
2022-12-19T13:19:29.039Z,24.53
2022-12-19T13:22:04.878Z,22.50
2022-12-19T13:24:41.549Z,24.67
2022-12-19T13:27:34.261Z,24.20
2022-12-19T13:30:00.827Z,22.13
2022-12-19T13:32:32.354Z,21.73
2022-12-19T13:35:17.899Z,23.27
2022-12-19T13:39:48.762Z,22.70
2022-12-19T13:40:44.126Z,23.33
2022-12-19T13:43:29.521Z,35.07
2022-12-19T13:45:57.898Z,36.83
2022-12-19T13:48:35.338Z,42.60
2022-12-19T13:51:06.543Z,34.43
2022-12-19T13:53:33.169Z,32.13
2022-12-19T13:56:01.366Z,29.03
2022-12-19T13:58:30.127Z,29.07
2022-12-19T14:00:58.880Z,30.00
2022-12-19T14:03:32.256Z,28.13
2022-12-19T14:06:18.457Z,30.97
2022-12-19T14:08:46.710Z,30.27
2022-12-19T14:11:34.855Z,29.30
2022-12-19T14:14:27.452Z,22.07
2022-12-19T14:16:55.786Z,22.85
2022-12-19T14:19:22.273Z,22.93
2022-12-19T14:22:08.753Z,22.73
2022-12-19T14:24:35.374Z,22.53
2022-12-19T14:28:24.083Z,25.07
2022-12-19T14:33:43.502Z,21.57
2022-12-19T14:36:08.910Z,29.47
2022-12-19T14:39:26.480Z,28.37
2022-12-19T14:41:54.679Z,29.93
2022-12-19T14:53:34.303Z,25.77
2022-12-19T14:54:00.855Z,29.60
2022-12-19T14:54:12.348Z,26.27
2022-12-19T14:54:55.255Z,29.10
2022-12-19T14:58:57.502Z,26.85
2022-12-19T15:01:26.455Z,26.57
2022-12-19T15:04:51.397Z,24.47
2022-12-19T15:11:08.943Z,25.13
2022-12-19T15:14:51.839Z,25.17
2022-12-19T15:15:45.793Z,25.30
2022-12-19T15:18:26.127Z,28.00
2022-12-19T15:20:53.398Z,28.90
2022-12-19T15:23:22.314Z,32.00
2022-12-19T15:26:07.125Z,29.93
2022-12-19T15:28:37.128Z,29.93
2022-12-19T15:31:06.968Z,30.03
2022-12-19T15:33:40.701Z,26.43
2022-12-19T15:36:14.745Z,27.20
2022-12-19T15:38:41.359Z,25.30
2022-12-19T15:56:52.256Z,29.93
2022-12-19T15:59:21.723Z,24.63
2022-12-19T16:01:48.444Z,24.97
2022-12-19T16:04:15.757Z,24.20
2022-12-19T16:06:42.981Z,24.80
2022-12-19T16:09:28.114Z,24.37
2022-12-19T16:11:55.007Z,24.80
2022-12-19T16:14:21.912Z,25.10
2022-12-19T16:16:54.886Z,26.73
2022-12-19T16:19:29.252Z,30.60
2022-12-19T16:21:57.112Z,26.93
2022-12-19T16:24:24.786Z,27.90
2022-12-19T16:26:53.080Z,25.87
2022-12-19T16:29:22.152Z,29.83
2022-12-19T16:31:48.946Z,34.00
2022-12-19T16:34:16.888Z,40.40
2022-12-19T16:53:24.191Z,46.90
2022-12-19T16:55:51.170Z,44.17
2022-12-19T17:16:23.998Z,35.33
2022-12-19T17:18:50.561Z,32.80
2022-12-19T17:21:18.303Z,36.67
2022-12-19T17:23:44.878Z,33.27
2022-12-19T17:26:15.846Z,30.17
2022-12-19T17:28:44.479Z,31.70
2022-12-19T17:31:14.173Z,27.47
2022-12-19T17:33:40.988Z,29.07
2022-12-19T17:36:07.942Z,25.97
2022-12-19T17:38:34.649Z,28.97
2022-12-19T17:41:01.152Z,26.20
2022-12-19T17:43:28.309Z,27.27
2022-12-19T17:45:54.811Z,23.80
2022-12-19T17:48:25.232Z,25.73
2022-12-19T17:50:51.781Z,25.50
2022-12-19T17:53:20.572Z,25.97
2022-12-19T17:55:47.023Z,24.23
2022-12-19T17:58:13.440Z,24.03
2022-12-19T18:00:42.254Z,26.27
2022-12-19T18:03:20.074Z,25.70
2022-12-19T18:05:46.714Z,28.30
2022-12-19T18:08:39.330Z,116.80
2022-12-19T18:11:07.749Z,33.73
2022-12-19T18:13:34.180Z,27.43
2022-12-19T18:16:01.482Z,28.10
2022-12-19T18:18:35.190Z,31.10
2022-12-19T18:21:02.759Z,28.80
2022-12-19T18:23:30.561Z,28.23
2022-12-19T18:26:01.467Z,21.53
2022-12-19T18:30:58.439Z,36.53
2022-12-19T18:33:25.206Z,30.00
2022-12-19T18:35:51.618Z,30.33
2022-12-19T18:38:19.281Z,24.00
2022-12-19T18:40:45.855Z,25.63
2022-12-19T18:43:14.109Z,25.90
2022-12-19T18:45:42.039Z,24.77
2022-12-19T18:48:14.173Z,26.77
2022-12-19T18:50:40.538Z,28.80
2022-12-19T18:53:11.326Z,29.83
2022-12-19T18:55:37.772Z,32.30
2022-12-19T18:58:04.217Z,29.63
2022-12-19T19:00:31.189Z,31.33
2022-12-19T19:03:02.272Z,29.57
2022-12-19T19:05:29.783Z,30.83
2022-12-19T19:07:58.901Z,28.83
2022-12-19T19:10:30.619Z,31.50
2022-12-19T19:12:57.871Z,29.80
2022-12-19T19:15:28.524Z,26.83
2022-12-19T19:18:02.544Z,25.33
2022-12-19T19:20:30.964Z,31.07
2022-12-19T19:22:57.894Z,25.50
2022-12-19T19:25:25.108Z,28.10
2022-12-19T19:27:52.021Z,30.57
2022-12-19T19:30:19.867Z,30.70
2022-12-19T19:32:48.994Z,32.83
2022-12-19T19:35:17.561Z,27.53
2022-12-19T19:37:44.984Z,28.13
2022-12-19T19:40:12.164Z,31.90
2022-12-19T19:42:38.614Z,30.33
2022-12-19T19:45:05.947Z,31.47
2022-12-19T19:47:36.068Z,26.87
2022-12-19T19:50:02.572Z,27.70
2022-12-19T19:52:28.955Z,25.83
2022-12-19T19:54:55.334Z,24.77
2022-12-19T19:57:21.824Z,28.67
2022-12-19T19:59:48.269Z,29.03
2022-12-19T20:02:16.874Z,28.27
2022-12-19T20:04:43.491Z,28.77
2022-12-19T20:07:09.897Z,27.70
2022-12-19T20:09:36.313Z,26.53
2022-12-19T20:12:02.737Z,26.87
2022-12-19T20:14:29.123Z,26.77
2022-12-19T20:16:55.870Z,28.40
2022-12-19T20:19:22.231Z,29.40
2022-12-19T20:21:48.636Z,25.97
2022-12-19T20:24:15.518Z,28.27
2022-12-19T20:26:42.077Z,28.00
2022-12-19T20:29:08.967Z,29.47
2022-12-19T20:31:35.579Z,25.23
2022-12-19T20:34:02.061Z,33.00
2022-12-19T20:36:28.534Z,25.33
2022-12-19T20:38:54.940Z,32.60
2022-12-19T20:41:21.631Z,24.07
2022-12-19T20:43:48.397Z,24.97
2022-12-19T20:46:16.258Z,62.07
2022-12-19T20:48:42.811Z,33.67
2022-12-19T20:51:09.978Z,25.97
2022-12-19T20:53:36.980Z,73.57
2022-12-19T20:56:03.979Z,30.03
2022-12-19T20:58:31.847Z,27.47
2022-12-19T21:01:03.292Z,25.03
2022-12-19T21:03:30.526Z,30.20
2022-12-19T21:05:57.254Z,42.30
2022-12-19T21:08:24.665Z,50.93
2022-12-19T21:10:51.754Z,65.93
2022-12-19T21:13:18.416Z,41.83
2022-12-19T21:15:47.699Z,41.73
2022-12-19T21:18:14.207Z,33.67
2022-12-19T21:20:40.679Z,32.83
2022-12-19T21:23:07.105Z,24.87
2022-12-19T21:25:33.533Z,28.17
2022-12-19T21:27:59.996Z,33.00
2022-12-19T21:30:26.395Z,33.63
2022-12-19T21:32:52.771Z,29.17
2022-12-19T21:35:19.220Z,26.30
2022-12-19T21:37:50.135Z,23.93
2022-12-19T21:40:17.145Z,22.93
2022-12-19T21:42:43.586Z,23.77
2022-12-19T21:45:10.828Z,29.13
2022-12-19T21:47:39.670Z,42.63
2022-12-19T21:50:07.204Z,27.97
2022-12-19T21:52:33.621Z,26.20
2022-12-19T21:55:00.080Z,27.63
2022-12-19T21:57:26.478Z,27.13
2022-12-19T21:59:52.948Z,24.93
2022-12-19T22:02:19.452Z,26.97
2022-12-19T22:04:46.052Z,22.27
2022-12-19T22:07:12.466Z,34.17
2022-12-19T22:09:38.887Z,30.60
2022-12-19T22:12:05.396Z,35.97
2022-12-19T22:14:34.417Z,26.10
2022-12-19T22:17:00.830Z,25.67
2022-12-19T22:19:27.226Z,23.50
2022-12-19T22:21:53.599Z,22.93
2022-12-19T22:24:20.289Z,25.93
2022-12-19T22:26:46.722Z,26.87
2022-12-19T22:29:14.575Z,24.60
2022-12-19T22:31:41.711Z,24.13
2022-12-19T22:34:09.791Z,22.20
2022-12-19T22:36:36.887Z,23.67
2022-12-19T22:39:04.575Z,24.20
2022-12-19T22:41:32.144Z,22.23
2022-12-19T22:43:58.569Z,28.50
2022-12-19T22:46:29.488Z,24.27
2022-12-19T22:48:57.459Z,53.63
2022-12-19T22:51:24.186Z,26.97
2022-12-19T22:53:50.593Z,27.23
2022-12-19T22:56:18.236Z,30.17
2022-12-19T22:58:45.986Z,23.27
2022-12-19T23:01:17.059Z,26.67
2022-12-19T23:03:44.401Z,30.52
2022-12-19T23:06:11.157Z,115.50
2022-12-19T23:08:37.948Z,58.40
2022-12-19T23:11:05.123Z,32.50
2022-12-19T23:13:31.770Z,194.97
2022-12-19T23:15:58.204Z,86.53
2022-12-19T23:18:24.573Z,41.87
2022-12-19T23:21:01.610Z,80.40
2022-12-19T23:23:29.294Z,254.57
2022-12-19T23:25:55.822Z,184.30
2022-12-19T23:28:22.222Z,86.23
2022-12-19T23:30:48.585Z,229.37
2022-12-19T23:33:15.949Z,158.70
2022-12-19T23:35:42.643Z,58.67
2022-12-19T23:38:09.223Z,90.40
2022-12-19T23:40:35.816Z,54.83
2022-12-19T23:43:02.429Z,60.10
2022-12-19T23:45:28.983Z,72.60
2022-12-19T23:47:55.382Z,69.83
2022-12-19T23:50:21.767Z,54.33
2022-12-19T23:52:48.229Z,56.77
2022-12-19T23:55:14.647Z,46.43
2022-12-19T23:57:41.086Z,65.97
